KGWR Airport (Gwinner-Roger Melroe Field) Information

FAA: GWR - ICAO: KGWR

KGWR Airport Location

State North Dakota
County Sargent
City Gwinner
KGWR Airport is 1 miles southeast of Gwinner, ND.
Latitude 46-13-05.8000N
Longitude 097-38-36.1000W
Elevation 1,265ft

KGWR Airport METARs

METAR KGWR 281415Z AUTO 31013G18KT 10SM CLR 05/05 A2983 RMK A01
Altimeter 29.83"
Temperature 5.0°C (41.0°F)
Wind 310° at 13KT with gusts to 18KT
Clouds Skies are clear.
Visibility 10.0mi
Time observed: 2021-10-28T14:15:00Z

KGWR Airport Details

Status Operational
Activation N/A
Ownership Public
Usage Public
Chart TWIN CITIES
ATC on-site No
Beacon schedule sunset-sunrise
Beacon color clear green

KGWR Airport Contacts

Owner GWINNER ARPT AUTH
Owner address 400 4TH AVE SE, GWINNER, ND 58040
Owner phone 701-680-8000
Manager HARLEY GILBERTSON
Manager address 603 18TH ST NW, JAMESTOWN, ND 58401
Manager phone 701-438-2613

KGWR Airport (Gwinner-Roger Melroe Field) Radio Frequencies

KGWR (Airport) Radio Frequencies

UNICOM 122.7
Common traffic advisory frequency (CTAF) 122.7